createdAt,value
2022-08-17T00:02:26.485Z,99.90
2022-08-17T00:04:55.495Z,99.90
2022-08-17T00:07:22.895Z,99.90
2022-08-17T00:09:49.923Z,99.90
2022-08-17T00:12:51.508Z,99.90
2022-08-17T00:15:08.206Z,99.90
2022-08-17T00:17:38.329Z,99.90
2022-08-17T00:20:06.138Z,99.90
2022-08-17T00:22:36.337Z,99.90
2022-08-17T00:25:10.033Z,99.90
2022-08-17T00:27:37.045Z,99.90
2022-08-17T00:30:09.012Z,99.90
2022-08-17T00:33:12.686Z,99.90
2022-08-17T00:35:28.887Z,99.90
2022-08-17T00:37:55.825Z,99.90
2022-08-17T00:40:24.755Z,99.90
2022-08-17T00:42:53.286Z,99.90
2022-08-17T00:45:22.601Z,99.90
2022-08-17T00:47:49.614Z,99.90
2022-08-17T00:50:19.617Z,99.90
2022-08-17T00:52:55.892Z,99.90
2022-08-17T00:55:24.762Z,99.90
2022-08-17T00:57:56.693Z,99.90
2022-08-17T01:00:29.863Z,99.90
2022-08-17T01:03:06.321Z,99.90
2022-08-17T01:05:38.349Z,99.90
2022-08-17T01:08:13.321Z,99.90
2022-08-17T01:10:58.444Z,99.90
2022-08-17T01:13:41.179Z,99.90
2022-08-17T01:16:25.777Z,99.90
2022-08-17T01:18:56.888Z,99.90
2022-08-17T01:21:31.689Z,99.90
2022-08-17T01:23:59.450Z,99.90
2022-08-17T01:26:27.271Z,99.90
2022-08-17T01:28:55.892Z,99.90
2022-08-17T01:31:28.773Z,99.90
2022-08-17T01:33:56.946Z,99.90
2022-08-17T01:36:23.816Z,99.90
2022-08-17T01:38:50.999Z,99.90
2022-08-17T01:41:21.493Z,99.90
2022-08-17T01:43:53.801Z,99.90
2022-08-17T01:46:24.262Z,99.90
2022-08-17T01:48:51.619Z,99.90
2022-08-17T01:51:20.041Z,99.90
2022-08-17T01:53:51.391Z,99.90
2022-08-17T01:56:21.431Z,99.90
2022-08-17T01:58:49.245Z,99.90
2022-08-17T02:01:18.920Z,99.90
2022-08-17T02:03:58.999Z,99.90
2022-08-17T02:06:52.916Z,99.90
2022-08-17T02:09:25.405Z,99.90
2022-08-17T02:11:56.349Z,99.90
2022-08-17T02:14:24.884Z,99.90
2022-08-17T02:16:52.950Z,99.90
2022-08-17T02:19:20.380Z,99.90
2022-08-17T02:21:50.260Z,99.90
2022-08-17T02:25:00.490Z,99.90
2022-08-17T02:27:11.814Z,99.90
2022-08-17T02:29:38.917Z,99.90
2022-08-17T02:32:06.086Z,99.90
2022-08-17T02:34:33.232Z,99.90
2022-08-17T02:37:00.485Z,99.90
2022-08-17T02:39:27.408Z,99.90
2022-08-17T02:42:02.397Z,99.90
2022-08-17T02:44:38.962Z,99.90
2022-08-17T02:47:09.620Z,99.90
2022-08-17T02:49:37.173Z,99.90
2022-08-17T02:52:08.013Z,99.90
2022-08-17T02:54:41.701Z,99.90
2022-08-17T02:57:10.426Z,99.90
2022-08-17T02:59:46.785Z,99.90
2022-08-17T03:02:15.848Z,99.90
2022-08-17T03:04:43.032Z,99.90
2022-08-17T03:07:09.925Z,99.90
2022-08-17T03:09:36.819Z,99.90
2022-08-17T03:12:09.390Z,99.90
2022-08-17T03:14:41.687Z,99.90
2022-08-17T03:17:17.092Z,99.90
2022-08-17T03:19:44.976Z,99.90
2022-08-17T03:22:34.745Z,99.90
2022-08-17T03:24:59.048Z,99.90
2022-08-17T03:27:26.656Z,99.90
2022-08-17T03:29:54.386Z,99.90
2022-08-17T03:32:21.429Z,99.90
2022-08-17T03:34:48.659Z,99.90
2022-08-17T03:37:15.599Z,99.90
2022-08-17T03:39:42.982Z,99.90
2022-08-17T03:42:31.365Z,99.90
2022-08-17T03:45:01.296Z,99.90
2022-08-17T03:47:47.091Z,99.90
2022-08-17T03:50:33.511Z,99.90
2022-08-17T03:53:22.692Z,99.90
2022-08-17T03:56:08.670Z,99.90
2022-08-17T03:58:37.654Z,99.90
2022-08-17T04:01:06.938Z,99.90
2022-08-17T04:03:34.106Z,99.90
2022-08-17T04:06:02.264Z,99.90
2022-08-17T04:08:30.073Z,99.90
2022-08-17T04:10:57.849Z,99.90
2022-08-17T04:13:25.671Z,99.90
2022-08-17T04:15:53.110Z,99.90
2022-08-17T04:18:20.183Z,99.90
2022-08-17T04:20:47.283Z,99.90
2022-08-17T04:23:17.625Z,99.90
2022-08-17T04:25:49.054Z,99.90
2022-08-17T04:28:18.671Z,99.90
2022-08-17T04:30:47.513Z,99.90
2022-08-17T04:33:25.399Z,99.90
2022-08-17T04:35:58.487Z,99.90
2022-08-17T04:38:26.494Z,99.90
2022-08-17T04:41:12.982Z,99.90
2022-08-17T04:43:42.150Z,99.90
2022-08-17T04:46:16.353Z,99.90
2022-08-17T04:48:45.798Z,99.90
2022-08-17T04:51:20.099Z,99.90
2022-08-17T04:53:54.111Z,99.90
2022-08-17T04:56:23.758Z,99.90
2022-08-17T04:58:53.006Z,99.90
2022-08-17T05:01:24.117Z,99.90
2022-08-17T05:03:59.046Z,99.90
2022-08-17T05:06:27.949Z,99.90
2022-08-17T05:08:57.068Z,99.90
2022-08-17T05:11:26.148Z,99.90
2022-08-17T05:13:54.444Z,99.90
2022-08-17T05:16:23.426Z,99.90
2022-08-17T05:18:50.938Z,99.90
2022-08-17T05:21:18.772Z,99.90
2022-08-17T05:23:49.197Z,99.90
2022-08-17T05:26:26.458Z,99.90
2022-08-17T05:29:00.348Z,99.90
2022-08-17T05:31:30.175Z,99.90
2022-08-17T05:33:58.058Z,99.90
2022-08-17T05:36:43.483Z,99.90
2022-08-17T05:39:15.613Z,99.90
2022-08-17T05:41:44.364Z,99.90
2022-08-17T05:44:11.249Z,99.90
2022-08-17T05:46:41.485Z,99.90
2022-08-17T05:49:09.536Z,99.90
2022-08-17T05:52:20.110Z,99.90
2022-08-17T05:55:21.007Z,99.90
2022-08-17T05:58:05.904Z,99.90
2022-08-17T06:00:50.773Z,99.90
2022-08-17T06:03:30.800Z,99.90
2022-08-17T06:06:23.235Z,99.90
2022-08-17T06:09:10.635Z,99.90
2022-08-17T06:11:44.694Z,99.90
2022-08-17T06:14:34.765Z,99.90
2022-08-17T06:17:13.655Z,99.90
2022-08-17T06:19:55.705Z,99.90
2022-08-17T06:22:29.604Z,99.90
2022-08-17T06:25:14.777Z,99.90
2022-08-17T06:27:48.818Z,99.90
2022-08-17T06:30:27.083Z,99.90
2022-08-17T06:32:59.617Z,99.90
2022-08-17T06:35:41.044Z,99.90
2022-08-17T06:38:49.968Z,99.90
2022-08-17T06:41:37.808Z,99.90
2022-08-17T06:44:50.154Z,99.90
2022-08-17T06:47:12.560Z,99.50
2022-08-17T06:49:54.673Z,99.20
2022-08-17T06:52:46.047Z,98.60
2022-08-17T06:55:27.562Z,97.10
2022-08-17T06:58:00.111Z,95.50
2022-08-17T07:00:40.741Z,95.20
2022-08-17T07:03:37.791Z,93.30
2022-08-17T07:06:08.264Z,91.50
2022-08-17T07:09:05.384Z,90.10
2022-08-17T07:11:47.219Z,83.10
2022-08-17T07:14:25.817Z,81.80
2022-08-17T07:16:56.153Z,79.10
2022-08-17T07:19:31.547Z,75.10
2022-08-17T07:22:14.008Z,73.70
2022-08-17T07:25:02.972Z,70.80
2022-08-17T07:27:35.469Z,67.00
2022-08-17T07:30:10.362Z,66.60
2022-08-17T07:32:47.607Z,66.70
2022-08-17T07:35:31.321Z,65.00
2022-08-17T07:38:24.973Z,64.70
2022-08-17T07:41:02.839Z,61.20
2022-08-17T07:43:41.117Z,61.00
2022-08-17T07:46:30.026Z,61.60
2022-08-17T07:49:03.435Z,60.90
2022-08-17T07:51:35.409Z,58.90
2022-08-17T07:54:22.594Z,57.70
2022-08-17T07:56:57.267Z,56.40
2022-08-17T07:59:28.680Z,56.20
2022-08-17T08:02:03.727Z,55.00
2022-08-17T08:04:58.865Z,56.10
2022-08-17T08:07:38.977Z,55.20
2022-08-17T08:10:14.445Z,55.70
2022-08-17T08:12:48.094Z,57.10
2022-08-17T08:15:25.707Z,56.80
2022-08-17T08:17:54.462Z,56.40
2022-08-17T08:20:52.412Z,55.70
2022-08-17T08:23:52.673Z,53.50
2022-08-17T08:26:30.388Z,52.40
2022-08-17T08:29:08.339Z,52.80
2022-08-17T08:31:45.174Z,52.40
2022-08-17T08:34:47.380Z,52.60
2022-08-17T08:38:07.490Z,51.00
2022-08-17T08:40:49.557Z,51.70
2022-08-17T08:43:40.377Z,52.90
2022-08-17T08:46:47.079Z,52.20
2022-08-17T08:50:04.495Z,51.50
2022-08-17T08:53:12.407Z,50.50
2022-08-17T08:55:51.545Z,51.60
2022-08-17T08:58:41.685Z,50.30
2022-08-17T09:01:20.355Z,48.60
2022-08-17T09:04:21.535Z,48.20
2022-08-17T09:07:25.521Z,47.40
2022-08-17T09:10:06.251Z,46.00
2022-08-17T09:12:33.309Z,45.00
2022-08-17T09:15:17.756Z,45.60
2022-08-17T09:19:01.293Z,46.20
2022-08-17T09:21:04.023Z,46.30
2022-08-17T09:23:49.506Z,45.50
2022-08-17T09:26:30.521Z,46.00
2022-08-17T09:29:03.243Z,45.10
2022-08-17T09:31:49.216Z,44.30
2022-08-17T09:34:29.619Z,43.90
2022-08-17T09:37:30.057Z,43.20
2022-08-17T09:40:13.816Z,43.50
2022-08-17T09:42:52.460Z,42.60
2022-08-17T09:45:29.759Z,42.80
2022-08-17T09:48:11.164Z,43.00
2022-08-17T09:51:13.644Z,42.60
2022-08-17T09:53:41.404Z,41.90
2022-08-17T09:56:43.776Z,41.30
2022-08-17T09:59:44.839Z,41.80
2022-08-17T10:02:33.785Z,41.70
2022-08-17T10:05:06.810Z,43.20
2022-08-17T10:07:46.580Z,43.40
2022-08-17T10:10:21.066Z,43.30
2022-08-17T10:12:57.634Z,43.40
2022-08-17T10:15:52.359Z,46.70
2022-08-17T10:18:38.256Z,50.30
2022-08-17T10:21:30.433Z,54.60
2022-08-17T10:24:22.011Z,57.90
2022-08-17T10:26:56.064Z,58.40
2022-08-17T10:29:48.400Z,60.60
2022-08-17T10:32:56.881Z,61.60
2022-08-17T10:35:30.144Z,59.90
2022-08-17T10:38:21.557Z,61.90
2022-08-17T10:41:01.508Z,65.90
2022-08-17T10:43:57.803Z,64.50
2022-08-17T10:46:52.359Z,64.80
2022-08-17T10:49:21.123Z,65.80
2022-08-17T10:52:00.561Z,65.30
2022-08-17T10:54:47.682Z,64.60
2022-08-17T10:57:29.846Z,65.00
2022-08-17T10:59:58.730Z,66.80
2022-08-17T11:02:31.498Z,66.50
2022-08-17T11:05:08.316Z,66.00
2022-08-17T11:08:05.279Z,64.80
2022-08-17T11:10:53.256Z,65.30
2022-08-17T11:13:54.627Z,64.90
2022-08-17T11:16:37.654Z,64.90
2022-08-17T11:19:43.486Z,64.20
2022-08-17T11:22:34.064Z,65.10
2022-08-17T11:25:14.251Z,63.90
2022-08-17T11:27:42.677Z,64.10
2022-08-17T11:30:35.955Z,64.20
2022-08-17T11:33:29.144Z,65.90
2022-08-17T11:36:12.477Z,64.60
2022-08-17T11:39:02.448Z,65.10
2022-08-17T11:42:07.274Z,65.80
2022-08-17T11:44:59.597Z,66.20
2022-08-17T11:48:27.901Z,65.90
2022-08-17T11:51:25.873Z,65.10
2022-08-17T11:54:21.470Z,66.30
2022-08-17T11:56:49.807Z,65.60
2022-08-17T11:59:36.425Z,64.80
2022-08-17T12:02:29.826Z,64.70
2022-08-17T12:05:27.531Z,63.20
2022-08-17T12:08:21.546Z,62.00
2022-08-17T12:11:16.613Z,63.30
2022-08-17T12:14:04.635Z,64.50
2022-08-17T12:16:31.781Z,66.10
2022-08-17T12:19:02.378Z,65.80
2022-08-17T12:21:37.399Z,63.20
2022-08-17T12:24:31.872Z,62.60
2022-08-17T12:27:02.055Z,61.00
2022-08-17T12:29:39.021Z,63.20
2022-08-17T12:32:12.881Z,61.20
2022-08-17T12:34:42.650Z,61.70
2022-08-17T12:37:20.871Z,61.80
2022-08-17T12:40:08.391Z,60.70
2022-08-17T12:42:39.420Z,61.60
2022-08-17T12:45:21.159Z,63.70
2022-08-17T12:47:48.140Z,63.40
2022-08-17T12:50:29.499Z,63.70
2022-08-17T12:53:01.742Z,63.80
2022-08-17T12:55:35.678Z,63.80
2022-08-17T12:58:02.810Z,63.50
2022-08-17T13:00:47.748Z,62.80
2022-08-17T13:03:21.866Z,61.20
2022-08-17T13:06:02.470Z,60.60
2022-08-17T13:08:43.932Z,63.00
2022-08-17T13:11:13.838Z,61.00
2022-08-17T13:13:43.796Z,59.70
2022-08-17T13:16:14.492Z,58.20
2022-08-17T13:18:49.622Z,57.70
2022-08-17T13:21:19.373Z,58.70
2022-08-17T13:24:11.071Z,57.60
2022-08-17T13:26:42.594Z,58.10
2022-08-17T13:29:24.659Z,59.10
2022-08-17T13:31:56.621Z,58.60
2022-08-17T13:35:15.055Z,60.00
2022-08-17T13:37:42.593Z,59.50
2022-08-17T13:40:10.207Z,63.60
2022-08-17T13:42:52.110Z,63.50
2022-08-17T13:45:36.578Z,63.80
2022-08-17T13:48:13.682Z,65.60
2022-08-17T13:50:47.939Z,66.30
2022-08-17T13:53:23.193Z,65.40
2022-08-17T13:56:37.968Z,64.80
2022-08-17T13:59:36.370Z,66.00
2022-08-17T14:02:16.096Z,66.50
2022-08-17T14:04:44.156Z,68.10
2022-08-17T14:07:15.356Z,68.00
2022-08-17T14:10:05.863Z,69.40
2022-08-17T14:12:35.550Z,70.00
2022-08-17T14:15:03.029Z,68.70
2022-08-17T14:17:36.312Z,70.50
2022-08-17T14:20:09.836Z,71.80
2022-08-17T14:22:39.737Z,71.90
2022-08-17T14:25:08.676Z,69.00
2022-08-17T14:27:51.814Z,68.80
2022-08-17T14:30:22.727Z,70.00
2022-08-17T14:32:51.880Z,75.60
2022-08-17T14:35:22.263Z,78.70
2022-08-17T14:37:50.830Z,88.00
2022-08-17T14:40:20.824Z,92.70
2022-08-17T14:42:48.142Z,93.10
2022-08-17T14:45:31.926Z,91.10
2022-08-17T14:48:07.589Z,91.40
2022-08-17T14:50:38.899Z,90.70
2022-08-17T14:53:07.378Z,91.10
2022-08-17T14:55:35.537Z,91.80
2022-08-17T14:58:04.034Z,92.60
2022-08-17T15:00:31.506Z,95.10
2022-08-17T15:03:00.216Z,95.30
2022-08-17T15:05:33.932Z,93.60
2022-08-17T15:08:02.207Z,92.00
2022-08-17T15:10:30.701Z,91.80
2022-08-17T15:12:58.297Z,91.10
2022-08-17T15:15:25.800Z,91.10
2022-08-17T15:17:53.390Z,92.30
2022-08-17T15:20:24.688Z,93.30
2022-08-17T15:22:59.032Z,94.50
2022-08-17T15:25:29.185Z,95.60
2022-08-17T15:27:56.852Z,97.30
2022-08-17T15:30:25.888Z,98.30
2022-08-17T15:32:55.282Z,99.40
2022-08-17T15:35:29.477Z,99.90
2022-08-17T15:38:03.548Z,99.90
2022-08-17T15:40:31.792Z,99.90
2022-08-17T15:43:27.864Z,99.90
2022-08-17T15:46:15.376Z,99.90
2022-08-17T15:48:44.777Z,99.90
2022-08-17T15:51:20.973Z,99.90
2022-08-17T15:53:50.990Z,99.90
2022-08-17T15:56:18.377Z,99.90
2022-08-17T15:58:46.889Z,99.90
2022-08-17T16:01:27.853Z,99.90
2022-08-17T16:04:07.065Z,99.90
2022-08-17T16:06:42.363Z,99.90
2022-08-17T16:09:09.228Z,99.90
2022-08-17T16:11:36.532Z,99.90
2022-08-17T16:14:04.963Z,99.90
2022-08-17T16:16:32.883Z,99.90
2022-08-17T16:18:59.805Z,99.90
2022-08-17T16:21:29.511Z,99.90
2022-08-17T16:24:04.659Z,99.90
2022-08-17T16:26:33.482Z,99.90
2022-08-17T16:29:02.404Z,99.90
2022-08-17T16:31:29.643Z,99.90
2022-08-17T16:34:15.764Z,99.90
2022-08-17T16:36:54.956Z,99.90
2022-08-17T16:39:26.243Z,99.90
2022-08-17T16:41:53.318Z,99.90
2022-08-17T16:44:21.405Z,99.90
2022-08-17T16:46:49.171Z,99.90
2022-08-17T16:49:35.574Z,99.90
2022-08-17T16:52:10.388Z,99.90
2022-08-17T16:54:41.883Z,99.90
2022-08-17T16:57:14.478Z,99.90
2022-08-17T16:59:44.998Z,99.90
2022-08-17T17:02:16.908Z,99.90
2022-08-17T17:04:54.259Z,99.90
2022-08-17T17:07:46.175Z,99.90
2022-08-17T17:10:18.398Z,99.90
2022-08-17T17:13:01.886Z,99.90
2022-08-17T17:15:46.489Z,99.90
2022-08-17T17:18:15.788Z,99.90
2022-08-17T17:20:55.461Z,99.90
2022-08-17T17:23:28.379Z,99.90
2022-08-17T17:26:13.762Z,99.90
2022-08-17T17:29:47.427Z,99.90
2022-08-17T17:32:17.266Z,99.90
2022-08-17T17:34:50.871Z,99.90
2022-08-17T17:37:24.438Z,99.90
2022-08-17T17:39:55.739Z,99.90
2022-08-17T17:42:28.300Z,99.90
2022-08-17T17:45:18.814Z,99.90
2022-08-17T17:47:47.042Z,99.90
2022-08-17T17:50:17.661Z,99.90
2022-08-17T17:52:56.519Z,99.90
2022-08-17T17:55:29.997Z,99.90
2022-08-17T17:58:23.858Z,99.90
2022-08-17T18:00:56.773Z,99.90
2022-08-17T18:03:40.610Z,99.90
2022-08-17T18:06:22.478Z,99.90
2022-08-17T18:09:03.719Z,99.90
2022-08-17T18:11:51.553Z,99.90
2022-08-17T18:14:36.395Z,99.90
2022-08-17T18:17:05.835Z,99.90
2022-08-17T18:19:33.204Z,99.90
2022-08-17T18:22:14.226Z,99.90
2022-08-17T18:24:45.523Z,99.90
2022-08-17T18:27:30.590Z,99.90
2022-08-17T18:30:04.577Z,99.90
2022-08-17T18:32:42.156Z,99.90
2022-08-17T18:35:09.455Z,99.90
2022-08-17T18:37:41.137Z,99.90
2022-08-17T18:40:17.039Z,99.90
2022-08-17T18:42:55.028Z,99.90
2022-08-17T18:45:38.190Z,99.90
2022-08-17T18:48:27.569Z,99.90
2022-08-17T18:50:58.954Z,99.90
2022-08-17T18:54:14.239Z,99.90
2022-08-17T18:56:57.071Z,99.90
2022-08-17T18:59:44.282Z,99.90
2022-08-17T19:02:37.311Z,99.90
2022-08-17T19:05:21.071Z,99.90
2022-08-17T19:07:48.135Z,99.90
2022-08-17T19:10:31.679Z,99.90
2022-08-17T19:13:12.577Z,99.90
2022-08-17T19:16:13.161Z,99.90
2022-08-17T19:18:51.051Z,99.90
2022-08-17T19:21:33.332Z,99.90
2022-08-17T19:24:13.257Z,99.90
2022-08-17T19:26:54.600Z,99.90
2022-08-17T19:29:46.683Z,99.90
2022-08-17T19:32:20.332Z,99.90
2022-08-17T19:34:48.012Z,99.90
2022-08-17T19:37:34.734Z,99.90
2022-08-17T19:40:09.126Z,99.90
2022-08-17T19:42:52.957Z,99.90
2022-08-17T19:45:40.050Z,99.90
2022-08-17T19:48:25.984Z,99.90
2022-08-17T19:51:09.602Z,99.90
2022-08-17T19:54:04.770Z,99.90
2022-08-17T19:57:01.660Z,99.90
2022-08-17T19:59:48.992Z,99.90
2022-08-17T20:02:57.269Z,99.90
2022-08-17T20:06:01.322Z,99.90
2022-08-17T20:08:29.190Z,99.90
2022-08-17T20:11:07.359Z,99.90
2022-08-17T20:13:49.065Z,99.90
2022-08-17T20:16:18.376Z,99.90
2022-08-17T20:19:05.980Z,99.90
2022-08-17T20:21:42.806Z,99.90
2022-08-17T20:24:31.570Z,99.90
2022-08-17T20:27:11.074Z,99.90
2022-08-17T20:29:59.725Z,99.90
2022-08-17T20:32:35.442Z,99.90
2022-08-17T20:35:18.097Z,99.90
2022-08-17T20:37:53.834Z,99.90
2022-08-17T20:40:25.891Z,99.90
2022-08-17T20:42:53.382Z,99.90
2022-08-17T20:45:26.263Z,99.90
2022-08-17T20:48:33.362Z,99.90
2022-08-17T20:50:59.007Z,99.90
2022-08-17T20:53:47.744Z,99.90
2022-08-17T20:56:48.887Z,99.90
2022-08-17T20:59:26.117Z,99.90
2022-08-17T21:02:18.464Z,99.90
2022-08-17T21:04:52.958Z,99.90
2022-08-17T21:07:29.130Z,99.90
2022-08-17T21:10:15.983Z,99.90
2022-08-17T21:13:22.024Z,99.90
2022-08-17T21:15:54.675Z,99.90
2022-08-17T21:18:38.650Z,99.90
2022-08-17T21:21:34.073Z,99.90
2022-08-17T21:24:26.274Z,99.90
2022-08-17T21:27:25.466Z,99.90
2022-08-17T21:30:24.581Z,99.90
2022-08-17T21:33:16.687Z,99.90
2022-08-17T21:35:59.509Z,99.90
2022-08-17T21:38:37.069Z,99.90
2022-08-17T21:41:04.973Z,99.90
2022-08-17T21:43:37.509Z,99.90
2022-08-17T21:46:21.920Z,99.90
2022-08-17T21:48:54.379Z,99.90
2022-08-17T21:51:28.751Z,99.90
2022-08-17T21:54:03.047Z,99.90
2022-08-17T21:56:34.256Z,99.90
2022-08-17T21:59:32.931Z,99.90
2022-08-17T22:02:03.216Z,99.90
2022-08-17T22:04:39.401Z,99.90
2022-08-17T22:07:11.697Z,99.90
2022-08-17T22:09:45.733Z,99.90
2022-08-17T22:12:17.933Z,99.90
2022-08-17T22:14:56.726Z,99.90
2022-08-17T22:17:36.509Z,99.90
2022-08-17T22:20:14.931Z,99.90
2022-08-17T22:23:20.447Z,99.90
2022-08-17T22:26:09.586Z,99.90
2022-08-17T22:28:46.979Z,99.90
2022-08-17T22:31:21.579Z,99.90
2022-08-17T22:33:53.029Z,99.90
2022-08-17T22:36:38.999Z,99.90
2022-08-17T22:39:08.697Z,99.90
2022-08-17T22:41:47.072Z,99.90
2022-08-17T22:44:44.796Z,99.90
2022-08-17T22:47:14.881Z,99.90
2022-08-17T22:49:57.888Z,99.90
2022-08-17T22:53:14.742Z,99.90
2022-08-17T22:56:09.656Z,99.90
2022-08-17T22:59:02.205Z,99.90
2022-08-17T23:01:35.091Z,99.90
2022-08-17T23:04:04.073Z,99.90
2022-08-17T23:06:35.144Z,99.90
2022-08-17T23:09:04.629Z,99.90
2022-08-17T23:11:49.414Z,99.90
2022-08-17T23:14:19.955Z,99.90
2022-08-17T23:16:48.702Z,99.90
2022-08-17T23:19:20.942Z,99.90
2022-08-17T23:21:53.809Z,99.90
2022-08-17T23:24:23.992Z,99.90
2022-08-17T23:26:51.139Z,99.90
2022-08-17T23:29:22.563Z,99.90
2022-08-17T23:31:51.145Z,99.90
2022-08-17T23:34:19.322Z,99.90
2022-08-17T23:36:52.259Z,99.90
2022-08-17T23:39:24.543Z,99.90
2022-08-17T23:41:57.409Z,99.90
2022-08-17T23:44:25.311Z,99.90
2022-08-17T23:46:53.734Z,99.90
2022-08-17T23:49:20.652Z,99.90
2022-08-17T23:51:49.145Z,99.90
2022-08-17T23:54:21.286Z,99.90
2022-08-17T23:56:48.658Z,99.90
2022-08-17T23:59:22.883Z,99.90
